createdAt,value
2017-07-11T00:00:56.324Z,0
2017-07-11T00:01:56.916Z,0
2017-07-11T00:02:57.560Z,0
2017-07-11T00:04:41.901Z,0
2017-07-11T00:05:42.551Z,0
2017-07-11T00:06:43.188Z,0
2017-07-11T00:07:43.835Z,0
2017-07-11T00:09:28.079Z,0
2017-07-11T00:10:28.721Z,0
2017-07-11T00:11:29.362Z,0
2017-07-11T00:12:30.157Z,0
2017-07-11T00:14:14.303Z,0
2017-07-11T00:15:14.943Z,0
2017-07-11T00:16:15.587Z,0
2017-07-11T00:17:16.233Z,0
2017-07-11T00:19:00.378Z,0
2017-07-11T00:20:01.022Z,0
2017-07-11T00:21:01.913Z,0
2017-07-11T00:22:02.560Z,0
2017-07-11T00:23:46.702Z,0
2017-07-11T00:24:47.344Z,0
2017-07-11T00:25:47.992Z,0
2017-07-11T00:26:48.633Z,0
2017-07-11T00:28:32.729Z,0
2017-07-11T00:29:33.570Z,0
2017-07-11T00:30:34.212Z,0
2017-07-11T00:31:34.856Z,0
2017-07-11T00:33:18.998Z,0
2017-07-11T00:34:19.640Z,0
2017-07-11T00:35:20.283Z,0
2017-07-11T00:36:20.930Z,0
2017-07-11T00:38:05.074Z,0
2017-07-11T00:39:05.717Z,0
2017-07-11T00:40:06.360Z,0
2017-07-11T00:41:07.008Z,0
2017-07-11T00:42:51.157Z,0
2017-07-11T00:43:51.795Z,0
2017-07-11T00:44:52.437Z,0
2017-07-11T00:45:53.238Z,0
2017-07-11T00:47:37.378Z,0
2017-07-11T00:48:38.022Z,0
2017-07-11T00:49:38.665Z,0
2017-07-11T00:50:39.314Z,0
2017-07-11T00:52:23.506Z,0
2017-07-11T00:53:24.150Z,0
2017-07-11T00:54:24.992Z,0
2017-07-11T00:55:25.585Z,0
2017-07-11T00:57:09.725Z,0
2017-07-11T00:58:10.370Z,0
2017-07-11T00:59:11.012Z,0
2017-07-11T01:00:11.859Z,0
2017-07-11T01:01:56.057Z,0
2017-07-11T01:02:56.695Z,0
2017-07-11T01:03:57.336Z,0
2017-07-11T01:04:57.982Z,0
2017-07-11T01:06:42.126Z,0
2017-07-11T01:07:42.919Z,0
2017-07-11T01:08:43.560Z,0
2017-07-11T01:09:44.206Z,0
2017-07-11T01:11:28.352Z,0
2017-07-11T01:12:29.049Z,0
2017-07-11T01:13:29.691Z,0
2017-07-11T01:14:30.335Z,0
2017-07-11T01:16:14.677Z,0
2017-07-11T01:17:15.322Z,0
2017-07-11T01:18:15.963Z,0
2017-07-11T01:19:16.607Z,0
2017-07-11T01:21:00.747Z,0
2017-07-11T01:22:01.389Z,0
2017-07-11T01:23:02.033Z,0
2017-07-11T01:24:02.679Z,0
2017-07-11T01:25:47.025Z,0
2017-07-11T01:26:47.724Z,0
2017-07-11T01:27:48.365Z,0
2017-07-11T01:28:49.009Z,0
2017-07-11T01:30:33.156Z,0
2017-07-11T01:31:33.795Z,0
2017-07-11T01:32:34.638Z,0
2017-07-11T01:33:35.283Z,0
2017-07-11T01:35:19.430Z,0
2017-07-11T01:36:20.070Z,0
2017-07-11T01:37:20.711Z,0
2017-07-11T01:38:21.357Z,0
2017-07-11T01:40:05.501Z,0
2017-07-11T01:41:06.444Z,0
2017-07-11T01:42:07.086Z,0
2017-07-11T01:43:07.732Z,0
2017-07-11T01:44:51.876Z,0
2017-07-11T01:45:52.518Z,0
2017-07-11T01:46:53.161Z,0
2017-07-11T01:47:53.810Z,0
2017-07-11T01:49:38.102Z,0
2017-07-11T01:50:38.748Z,0
2017-07-11T01:51:39.386Z,0
2017-07-11T01:52:40.031Z,0
2017-07-11T01:54:24.174Z,0
2017-07-11T01:55:24.816Z,0
2017-07-11T01:56:25.460Z,0
2017-07-11T01:57:26.305Z,0
2017-07-11T01:59:10.448Z,0
2017-07-11T02:00:11.091Z,0
2017-07-11T02:01:11.733Z,0
2017-07-11T02:02:12.379Z,0
2017-07-11T02:03:56.524Z,0
2017-07-11T02:04:57.167Z,0
2017-07-11T02:05:57.959Z,0
2017-07-11T02:06:58.606Z,0
2017-07-11T02:08:42.756Z,0
2017-07-11T02:09:43.391Z,0
2017-07-11T02:10:44.034Z,0
2017-07-11T02:11:44.679Z,0
2017-07-11T02:13:28.824Z,0
2017-07-11T02:14:29.665Z,0
2017-07-11T02:15:30.307Z,0
2017-07-11T02:16:30.951Z,0
2017-07-11T02:18:15.093Z,0
2017-07-11T02:19:15.736Z,0
2017-07-11T02:20:16.379Z,0
2017-07-11T02:21:17.025Z,0
2017-07-11T02:23:01.318Z,0
2017-07-11T02:24:01.960Z,0
2017-07-11T02:25:02.601Z,0
2017-07-11T02:26:03.246Z,0
2017-07-11T02:27:47.389Z,0
2017-07-11T02:28:48.043Z,0
2017-07-11T02:29:48.673Z,0
2017-07-11T02:30:49.570Z,0
2017-07-11T02:32:33.711Z,0
2017-07-11T02:33:34.356Z,0
2017-07-11T02:34:34.998Z,0
2017-07-11T02:35:35.644Z,0
2017-07-11T02:37:19.788Z,0
2017-07-11T02:38:20.431Z,0
2017-07-11T02:39:21.224Z,0
2017-07-11T02:40:21.869Z,0
2017-07-11T02:42:06.013Z,0
2017-07-11T02:43:06.656Z,0
2017-07-11T02:44:07.301Z,0
2017-07-11T02:45:07.945Z,0
2017-07-11T02:46:52.089Z,0
2017-07-11T02:47:52.931Z,0
2017-07-11T02:48:53.572Z,0
2017-07-11T02:49:54.225Z,0
2017-07-11T02:51:38.357Z,0
2017-07-11T02:52:39.000Z,0
2017-07-11T02:53:39.646Z,0
2017-07-11T02:54:40.290Z,0
2017-07-11T02:56:24.582Z,0
2017-07-11T02:57:25.226Z,0
2017-07-11T02:58:25.881Z,0
2017-07-11T02:59:26.514Z,0
2017-07-11T03:01:10.659Z,0
2017-07-11T03:02:11.303Z,0
2017-07-11T03:03:11.944Z,0
2017-07-11T03:04:12.841Z,0
2017-07-11T03:05:56.983Z,0
2017-07-11T03:06:57.626Z,0
2017-07-11T03:07:58.269Z,0
2017-07-11T03:08:58.917Z,0
2017-07-11T03:10:43.059Z,0
2017-07-11T03:11:43.702Z,0
2017-07-11T03:12:44.695Z,0
2017-07-11T03:13:45.338Z,0
2017-07-11T03:15:29.483Z,0
2017-07-11T03:16:30.125Z,0
2017-07-11T03:17:30.769Z,0
2017-07-11T03:18:31.414Z,0
2017-07-11T03:20:15.558Z,0
2017-07-11T03:21:16.400Z,0
2017-07-11T03:22:17.041Z,0
2017-07-11T03:23:17.685Z,0
2017-07-11T03:25:01.828Z,0
2017-07-11T03:26:02.469Z,0
2017-07-11T03:27:03.112Z,0
2017-07-11T03:28:03.758Z,0
2017-07-11T03:29:48.103Z,0
2017-07-11T03:30:48.745Z,0
2017-07-11T03:31:49.390Z,0
2017-07-11T03:32:50.034Z,0
2017-07-11T03:34:34.178Z,0
2017-07-11T03:35:34.820Z,0
2017-07-11T03:36:35.463Z,0
2017-07-11T03:37:36.309Z,0
2017-07-11T03:39:20.451Z,0
2017-07-11T03:40:21.095Z,0
2017-07-11T03:41:21.737Z,0
2017-07-11T03:42:22.383Z,0
2017-07-11T03:44:06.526Z,0
2017-07-11T03:45:07.169Z,0
2017-07-11T03:46:08.112Z,0
2017-07-11T03:47:08.758Z,0
2017-07-11T03:48:52.902Z,0
2017-07-11T03:49:53.544Z,0
2017-07-11T03:50:54.187Z,0
2017-07-11T03:51:54.833Z,0
2017-07-11T03:53:38.978Z,0
2017-07-11T03:54:39.769Z,0
2017-07-11T03:55:40.410Z,0
2017-07-11T03:56:41.055Z,0
2017-07-11T03:58:25.200Z,0
2017-07-11T03:59:25.841Z,0
2017-07-11T04:00:26.483Z,0
2017-07-11T04:01:27.129Z,0
2017-07-11T04:03:11.483Z,0
2017-07-11T04:04:12.117Z,0
2017-07-11T04:05:12.760Z,0
2017-07-11T04:06:13.405Z,0
2017-07-11T04:07:57.550Z,0
2017-07-11T04:08:58.213Z,0
2017-07-11T04:09:58.834Z,0
2017-07-11T04:10:59.630Z,0
2017-07-11T04:12:43.772Z,0
2017-07-11T04:13:44.415Z,0
2017-07-11T04:14:45.057Z,0
2017-07-11T04:15:45.703Z,0
2017-07-11T04:17:29.850Z,0
2017-07-11T04:18:30.491Z,0
2017-07-11T04:19:31.333Z,0
2017-07-11T04:20:31.978Z,0
2017-07-11T04:22:16.118Z,0
2017-07-11T04:23:16.778Z,0
2017-07-11T04:24:17.404Z,0
2017-07-11T04:25:18.050Z,0
2017-07-11T04:27:02.194Z,0
2017-07-11T04:28:02.985Z,0
2017-07-11T04:29:03.626Z,0
2017-07-11T04:30:04.275Z,0
2017-07-11T04:31:48.415Z,0
2017-07-11T04:32:49.057Z,0
2017-07-11T04:33:49.699Z,0
2017-07-11T04:34:50.349Z,0
2017-07-11T04:36:34.691Z,0
2017-07-11T04:37:35.339Z,0
2017-07-11T04:38:35.976Z,0
2017-07-11T04:39:36.622Z,0
2017-07-11T04:41:20.766Z,0
2017-07-11T04:42:21.408Z,0
2017-07-11T04:43:22.051Z,0
2017-07-11T04:44:22.996Z,0
2017-07-11T04:46:07.139Z,0
2017-07-11T04:47:07.783Z,0
2017-07-11T04:48:08.426Z,0
2017-07-11T04:49:09.071Z,0
2017-07-11T04:50:53.216Z,0
2017-07-11T04:51:53.858Z,0
2017-07-11T04:52:54.700Z,0
2017-07-11T04:53:55.345Z,0
2017-07-11T04:55:39.488Z,0
2017-07-11T04:56:40.142Z,0
2017-07-11T04:57:40.771Z,0
2017-07-11T04:58:41.416Z,0
2017-07-11T05:00:25.761Z,0
2017-07-11T05:01:26.407Z,0
2017-07-11T05:02:27.047Z,0
2017-07-11T05:03:27.690Z,0
2017-07-11T05:05:11.831Z,0
2017-07-11T05:06:12.476Z,0
2017-07-11T05:07:13.116Z,0
2017-07-11T05:08:13.762Z,0
2017-07-11T05:09:58.106Z,0
2017-07-11T05:10:58.750Z,0
2017-07-11T05:11:59.392Z,0
2017-07-11T05:13:00.038Z,0
2017-07-11T05:14:44.181Z,0
2017-07-11T05:15:44.825Z,0
2017-07-11T05:16:45.467Z,0
2017-07-11T05:17:46.313Z,0
2017-07-11T05:19:30.455Z,0
2017-07-11T05:20:31.097Z,0
2017-07-11T05:21:31.740Z,0
2017-07-11T05:22:32.386Z,0
2017-07-11T05:24:16.531Z,0
2017-07-11T05:25:17.371Z,0
2017-07-11T05:26:18.015Z,0
2017-07-11T05:27:18.656Z,0
2017-07-11T05:29:02.798Z,0
2017-07-11T05:30:03.439Z,0
2017-07-11T05:31:04.082Z,0
2017-07-11T05:32:04.728Z,0
2017-07-11T05:33:49.121Z,0
2017-07-11T05:34:49.781Z,0
2017-07-11T05:35:50.408Z,0
2017-07-11T05:36:51.058Z,0
2017-07-11T05:38:35.195Z,0
2017-07-11T05:39:35.838Z,0
2017-07-11T05:40:36.480Z,0
2017-07-11T05:41:37.127Z,0
2017-07-11T05:43:21.520Z,0
2017-07-11T05:44:22.162Z,0
2017-07-11T05:45:22.805Z,0
2017-07-11T05:46:23.451Z,0
2017-07-11T05:48:07.601Z,0
2017-07-11T05:49:08.244Z,0
2017-07-11T05:50:08.885Z,0
2017-07-11T05:51:09.735Z,0
2017-07-11T05:52:53.822Z,0
2017-07-11T05:53:54.462Z,0
2017-07-11T05:54:55.106Z,0
2017-07-11T05:55:55.755Z,0
2017-07-11T05:57:39.898Z,0
2017-07-11T05:58:40.737Z,0
2017-07-11T05:59:41.379Z,0
2017-07-11T06:00:42.023Z,0
2017-07-11T06:02:26.164Z,0
2017-07-11T06:03:26.807Z,0
2017-07-11T06:04:27.449Z,0
2017-07-11T06:05:28.096Z,0
2017-07-11T06:07:12.497Z,0
2017-07-11T06:08:13.134Z,0
2017-07-11T06:09:13.778Z,0
2017-07-11T06:10:14.426Z,0
2017-07-11T06:11:58.622Z,0
2017-07-11T06:12:59.264Z,0
2017-07-11T06:13:59.910Z,0
2017-07-11T06:15:00.552Z,0
2017-07-11T06:16:44.897Z,0
2017-07-11T06:17:45.540Z,0
2017-07-11T06:18:46.188Z,0
2017-07-11T06:19:46.828Z,0
2017-07-11T06:21:30.971Z,0
2017-07-11T06:22:31.613Z,0
2017-07-11T06:23:32.456Z,0
2017-07-11T06:24:33.101Z,0
2017-07-11T06:26:17.240Z,0
2017-07-11T06:27:17.884Z,0
2017-07-11T06:28:18.526Z,0
2017-07-11T06:29:19.172Z,0
2017-07-11T06:31:03.315Z,0
2017-07-11T06:32:04.158Z,0
2017-07-11T06:33:04.798Z,0
2017-07-11T06:34:05.442Z,0
2017-07-11T06:35:49.584Z,0
2017-07-11T06:36:50.226Z,0
2017-07-11T06:37:50.869Z,0
2017-07-11T06:38:51.516Z,0
2017-07-11T06:40:35.859Z,0
2017-07-11T06:41:36.502Z,0
2017-07-11T06:42:37.143Z,0
2017-07-11T06:43:37.788Z,0
2017-07-11T06:45:21.927Z,0
2017-07-11T06:46:22.571Z,0
2017-07-11T06:47:23.212Z,0
2017-07-11T06:48:24.109Z,0
2017-07-11T06:50:08.250Z,0
2017-07-11T06:51:08.898Z,0
2017-07-11T06:52:09.535Z,0
2017-07-11T06:53:10.181Z,0
2017-07-11T06:54:54.325Z,0
2017-07-11T06:55:54.967Z,0
2017-07-11T06:56:55.815Z,0
2017-07-11T06:57:56.455Z,0
2017-07-11T06:59:40.597Z,0
2017-07-11T07:00:41.238Z,0
2017-07-11T07:01:41.880Z,0
2017-07-11T07:02:42.527Z,0
2017-07-11T07:04:26.669Z,0
2017-07-11T07:05:27.462Z,0
2017-07-11T07:06:28.103Z,0
2017-07-11T07:07:28.749Z,0
2017-07-11T07:09:12.890Z,0
2017-07-11T07:10:13.534Z,0
2017-07-11T07:11:14.176Z,0
2017-07-11T07:12:14.821Z,0
2017-07-11T07:13:59.166Z,0
2017-07-11T07:14:59.809Z,0
2017-07-11T07:16:00.450Z,0
2017-07-11T07:17:01.094Z,0
2017-07-11T07:18:45.234Z,0
2017-07-11T07:19:45.878Z,0
2017-07-11T07:20:46.520Z,0
2017-07-11T07:21:47.316Z,0
2017-07-11T07:23:31.457Z,0
2017-07-11T07:24:32.101Z,0
2017-07-11T07:25:32.744Z,0
2017-07-11T07:26:33.390Z,0
2017-07-11T07:28:17.532Z,0
2017-07-11T07:29:18.126Z,0
2017-07-11T07:30:18.968Z,0
2017-07-11T07:31:19.614Z,0
2017-07-11T07:33:03.754Z,0
2017-07-11T07:34:04.397Z,0
2017-07-11T07:35:05.041Z,0
2017-07-11T07:36:05.687Z,0
2017-07-11T07:37:49.842Z,0
2017-07-11T07:38:50.675Z,0
2017-07-11T07:39:51.315Z,0
2017-07-11T07:40:51.959Z,0
2017-07-11T07:42:36.099Z,0
2017-07-11T07:43:36.743Z,0
2017-07-11T07:44:37.386Z,0
2017-07-11T07:45:38.031Z,0
2017-07-11T07:47:22.429Z,0
2017-07-11T07:48:23.068Z,0
2017-07-11T07:49:23.711Z,0
2017-07-11T07:50:24.416Z,0
2017-07-11T07:52:08.501Z,0
2017-07-11T07:53:09.143Z,0
2017-07-11T07:54:09.789Z,0
2017-07-11T07:55:10.581Z,0
2017-07-11T07:56:54.731Z,0
2017-07-11T07:57:55.374Z,0
2017-07-11T07:58:56.015Z,0
2017-07-11T07:59:56.661Z,0
2017-07-11T08:01:40.804Z,0
2017-07-11T08:02:41.448Z,0
2017-07-11T08:03:42.289Z,4
2017-07-11T08:04:42.934Z,4
2017-07-11T08:06:27.076Z,4
2017-07-11T08:07:27.718Z,4
2017-07-11T08:08:28.360Z,4
2017-07-11T08:09:29.010Z,4
2017-07-11T08:11:13.150Z,4
2017-07-11T08:12:13.991Z,4
2017-07-11T08:13:14.634Z,16
2017-07-11T08:14:15.279Z,20
2017-07-11T08:15:59.420Z,20
2017-07-11T08:17:00.063Z,20
2017-07-11T08:18:00.708Z,20
2017-07-11T08:19:01.352Z,20
2017-07-11T08:20:45.648Z,20
2017-07-11T08:21:46.291Z,20
2017-07-11T08:22:46.934Z,20
2017-07-11T08:23:47.581Z,20
2017-07-11T08:25:31.725Z,20
2017-07-11T08:26:32.368Z,20
2017-07-11T08:27:33.010Z,20
2017-07-11T08:28:33.857Z,20
2017-07-11T08:30:18.002Z,20
2017-07-11T08:31:18.644Z,20
2017-07-11T08:32:19.287Z,16
2017-07-11T08:33:19.933Z,20
2017-07-11T08:35:04.078Z,16
2017-07-11T08:36:04.721Z,20
2017-07-11T08:37:05.515Z,20
2017-07-11T08:38:06.159Z,16
2017-07-11T08:39:50.302Z,16
2017-07-11T08:40:50.946Z,20
2017-07-11T08:41:51.589Z,20
2017-07-11T08:42:52.237Z,20
2017-07-11T08:44:36.381Z,20
2017-07-11T08:45:37.324Z,20
2017-07-11T08:46:37.966Z,20
2017-07-11T08:47:38.614Z,20
2017-07-11T08:49:22.759Z,20
2017-07-11T08:50:23.406Z,20
2017-07-11T08:51:24.044Z,20
2017-07-11T08:52:24.702Z,20
2017-07-11T08:54:08.985Z,20
2017-07-11T08:55:09.626Z,16
2017-07-11T08:56:10.271Z,20
2017-07-11T08:57:10.918Z,20
2017-07-11T08:58:55.062Z,20
2017-07-11T08:59:55.705Z,24
2017-07-11T09:00:56.349Z,20
2017-07-11T09:01:57.197Z,20
2017-07-11T09:03:41.341Z,20
2017-07-11T09:04:41.982Z,20
2017-07-11T09:05:42.625Z,20
2017-07-11T09:06:43.272Z,24
2017-07-11T09:08:27.416Z,20
2017-07-11T09:09:28.059Z,20
2017-07-11T09:10:28.903Z,20
2017-07-11T09:11:29.549Z,20
2017-07-11T09:13:13.690Z,20
2017-07-11T09:14:14.333Z,20
2017-07-11T09:15:14.981Z,24
2017-07-11T09:16:15.624Z,20
2017-07-11T09:17:59.769Z,20
2017-07-11T09:19:00.610Z,20
2017-07-11T09:20:01.254Z,20
2017-07-11T09:21:01.898Z,24
2017-07-11T09:22:46.040Z,20
2017-07-11T09:23:46.683Z,20
2017-07-11T09:24:47.327Z,20
2017-07-11T09:25:47.975Z,20
2017-07-11T09:27:32.319Z,20
2017-07-11T09:28:32.962Z,20
2017-07-11T09:29:33.606Z,20
2017-07-11T09:30:34.253Z,20
2017-07-11T09:32:18.397Z,20
2017-07-11T09:33:19.039Z,20
2017-07-11T09:34:19.684Z,20
2017-07-11T09:35:20.481Z,20
2017-07-11T09:37:04.628Z,20
2017-07-11T09:38:05.271Z,20
2017-07-11T09:39:05.913Z,20
2017-07-11T09:40:06.560Z,20
2017-07-11T09:41:50.705Z,20
2017-07-11T09:42:51.370Z,20
2017-07-11T09:43:52.192Z,20
2017-07-11T09:44:52.838Z,16
2017-07-11T09:46:36.987Z,20
2017-07-11T09:47:37.628Z,24
2017-07-11T09:48:38.269Z,20
2017-07-11T09:49:38.916Z,20
2017-07-11T09:51:23.261Z,20
2017-07-11T09:52:23.906Z,20
2017-07-11T09:53:24.550Z,20
2017-07-11T09:54:25.195Z,24
2017-07-11T09:56:09.365Z,20
2017-07-11T09:57:09.983Z,20
2017-07-11T09:58:10.625Z,20
2017-07-11T09:59:11.272Z,20
2017-07-11T10:00:55.618Z,20
2017-07-11T10:01:56.261Z,24
2017-07-11T10:02:56.903Z,24
2017-07-11T10:03:57.551Z,24
2017-07-11T10:05:41.695Z,24
2017-07-11T10:06:42.346Z,24
2017-07-11T10:07:42.988Z,24
2017-07-11T10:08:43.834Z,24
2017-07-11T10:10:27.980Z,20
2017-07-11T10:11:28.622Z,24
2017-07-11T10:12:29.264Z,24
2017-07-11T10:13:29.911Z,24
2017-07-11T10:15:14.057Z,24
2017-07-11T10:16:14.850Z,24
2017-07-11T10:17:15.492Z,24
2017-07-11T10:18:16.143Z,24
2017-07-11T10:20:00.284Z,24
2017-07-11T10:21:00.926Z,24
2017-07-11T10:22:01.571Z,28
2017-07-11T10:23:02.168Z,28
2017-07-11T10:24:46.511Z,24
2017-07-11T10:25:47.158Z,24
2017-07-11T10:26:47.802Z,24
2017-07-11T10:27:48.447Z,24
2017-07-11T10:29:32.589Z,24
2017-07-11T10:30:33.235Z,24
2017-07-11T10:31:33.876Z,28
2017-07-11T10:32:34.523Z,24
2017-07-11T10:34:18.818Z,24
2017-07-11T10:35:19.462Z,24
2017-07-11T10:36:20.157Z,24
2017-07-11T10:37:20.751Z,28
2017-07-11T10:39:04.897Z,28
2017-07-11T10:40:05.539Z,28
2017-07-11T10:41:06.183Z,28
2017-07-11T10:42:07.030Z,28
2017-07-11T10:43:51.173Z,24
2017-07-11T10:44:51.817Z,24
2017-07-11T10:45:52.459Z,24
2017-07-11T10:46:53.107Z,28
2017-07-11T10:48:37.251Z,28
2017-07-11T10:49:38.097Z,28
2017-07-11T10:50:38.737Z,28
2017-07-11T10:51:39.382Z,32
2017-07-11T10:53:23.524Z,28
2017-07-11T10:54:24.167Z,32
2017-07-11T10:55:24.815Z,32
2017-07-11T10:56:25.460Z,28
2017-07-11T10:58:09.804Z,28
2017-07-11T10:59:10.449Z,28
2017-07-11T11:00:11.092Z,28
2017-07-11T11:01:11.737Z,28
2017-07-11T11:02:55.879Z,28
2017-07-11T11:03:56.523Z,28
2017-07-11T11:04:57.167Z,28
2017-07-11T11:05:57.814Z,28
2017-07-11T11:07:42.161Z,28
2017-07-11T11:08:42.808Z,28
2017-07-11T11:09:43.447Z,28
2017-07-11T11:10:44.095Z,32
2017-07-11T11:12:28.190Z,32
2017-07-11T11:13:28.835Z,32
2017-07-11T11:14:29.730Z,32
2017-07-11T11:15:30.376Z,32
2017-07-11T11:17:14.525Z,32
2017-07-11T11:18:15.169Z,28
2017-07-11T11:19:15.812Z,28
2017-07-11T11:20:16.459Z,28
2017-07-11T11:22:00.605Z,28
2017-07-11T11:23:01.447Z,32
2017-07-11T11:24:02.091Z,32
2017-07-11T11:25:02.736Z,32
2017-07-11T11:26:46.881Z,32
2017-07-11T11:27:47.523Z,32
2017-07-11T11:28:48.167Z,32
2017-07-11T11:29:48.814Z,32
2017-07-11T11:31:33.210Z,32
2017-07-11T11:32:33.855Z,32
2017-07-11T11:33:34.500Z,32
2017-07-11T11:34:35.147Z,28
2017-07-11T11:36:19.296Z,28
2017-07-11T11:37:19.939Z,28
2017-07-11T11:38:20.582Z,28
2017-07-11T11:39:21.380Z,28
2017-07-11T11:41:05.524Z,32
2017-07-11T11:42:06.167Z,28
2017-07-11T11:43:06.817Z,28
2017-07-11T11:44:07.516Z,28
2017-07-11T11:45:51.661Z,28
2017-07-11T11:46:52.305Z,28
2017-07-11T11:47:53.198Z,28
2017-07-11T11:48:53.846Z,28
2017-07-11T11:50:37.992Z,28
2017-07-11T11:51:38.635Z,28
2017-07-11T11:52:39.278Z,28
2017-07-11T11:53:39.926Z,28
2017-07-11T11:55:24.072Z,28
2017-07-11T11:56:24.866Z,28
2017-07-11T11:57:25.513Z,948
2017-07-11T11:58:26.165Z,48576
2017-07-11T12:00:10.332Z,49120
2017-07-11T12:01:10.966Z,49920
2017-07-11T12:02:11.617Z,50208
2017-07-11T12:03:12.222Z,50880
2017-07-11T12:04:56.572Z,38912
2017-07-11T12:05:57.227Z,13152
2017-07-11T12:06:57.878Z,4024
2017-07-11T12:07:58.530Z,3776
2017-07-11T12:09:42.682Z,3664
2017-07-11T12:10:43.334Z,3652
2017-07-11T12:11:43.986Z,3668
2017-07-11T12:12:44.897Z,3764
2017-07-11T12:14:29.042Z,3980
2017-07-11T12:15:29.696Z,4164
2017-07-11T12:16:30.347Z,4368
2017-07-11T12:17:31.001Z,4504
2017-07-11T12:19:15.155Z,5320
2017-07-11T12:20:15.810Z,24128
2017-07-11T12:21:16.664Z,46176
2017-07-11T12:22:17.319Z,48736
2017-07-11T12:24:01.423Z,50656
2017-07-11T12:25:02.079Z,50368
2017-07-11T12:26:02.733Z,51552
2017-07-11T12:27:03.389Z,51808
2017-07-11T12:28:47.553Z,47552
2017-07-11T12:29:48.406Z,47168
2017-07-11T12:30:49.060Z,48768
2017-07-11T12:31:49.724Z,49472
2017-07-11T12:33:33.935Z,50976
2017-07-11T12:34:34.594Z,53280
2017-07-11T12:35:35.248Z,53824
2017-07-11T12:36:35.907Z,52096
2017-07-11T12:38:20.265Z,48672
2017-07-11T12:39:20.919Z,50176
2017-07-11T12:40:21.572Z,53024
2017-07-11T12:41:22.231Z,52608
2017-07-11T12:43:06.384Z,47200
2017-07-11T12:44:07.038Z,48288
2017-07-11T12:45:07.694Z,50400
2017-07-11T12:46:08.547Z,50752
2017-07-11T12:47:52.704Z,47776
2017-07-11T12:48:53.359Z,48512
2017-07-11T12:49:54.016Z,49472
2017-07-11T12:50:54.670Z,49024
2017-07-11T12:52:38.825Z,51264
2017-07-11T12:53:39.481Z,51808
2017-07-11T12:54:40.278Z,51936
2017-07-11T12:55:40.931Z,50976
2017-07-11T12:57:25.079Z,50368
2017-07-11T12:58:25.728Z,50016
2017-07-11T12:59:26.400Z,49760
2017-07-11T13:00:27.032Z,48384
2017-07-11T13:02:11.185Z,50496
2017-07-11T13:03:12.034Z,48800
2017-07-11T13:04:12.681Z,48832
2017-07-11T13:05:13.334Z,50816
2017-07-11T13:06:57.492Z,51232
2017-07-11T13:07:58.144Z,52416
2017-07-11T13:08:58.794Z,53440
2017-07-11T13:09:59.496Z,53568
2017-07-11T13:11:43.801Z,52992
2017-07-11T13:12:44.500Z,52800
2017-07-11T13:13:45.148Z,52928
2017-07-11T13:14:45.803Z,52544
2017-07-11T13:16:29.956Z,52480
2017-07-11T13:17:30.605Z,52128
2017-07-11T13:18:31.253Z,50976
2017-07-11T13:19:32.107Z,49600
2017-07-11T13:21:16.210Z,47488
2017-07-11T13:22:16.865Z,46720
2017-07-11T13:23:17.511Z,44992
2017-07-11T13:24:18.164Z,41600
2017-07-11T13:26:02.321Z,39456
2017-07-11T13:27:02.999Z,44064
2017-07-11T13:28:03.818Z,45312
2017-07-11T13:29:04.470Z,39840
2017-07-11T13:30:48.629Z,36576
2017-07-11T13:31:49.278Z,36480
2017-07-11T13:32:49.926Z,38656
2017-07-11T13:33:50.578Z,41408
2017-07-11T13:35:34.730Z,42496
2017-07-11T13:36:35.579Z,39712
2017-07-11T13:37:36.226Z,39712
2017-07-11T13:38:36.878Z,41408
2017-07-11T13:40:21.028Z,41728
2017-07-11T13:41:21.676Z,39392
2017-07-11T13:42:22.327Z,35104
2017-07-11T13:43:22.981Z,32000
2017-07-11T13:45:07.282Z,28352
2017-07-11T13:46:07.932Z,27584
2017-07-11T13:47:08.585Z,26752
2017-07-11T13:48:09.234Z,26944
2017-07-11T13:49:53.388Z,25792
2017-07-11T13:50:54.037Z,20736
2017-07-11T13:51:54.686Z,16720
2017-07-11T13:52:55.540Z,14676
2017-07-11T13:54:39.690Z,12060
2017-07-11T13:55:40.340Z,10076
2017-07-11T13:56:40.985Z,8740
2017-07-11T13:57:41.638Z,7700
2017-07-11T13:59:25.788Z,6276
2017-07-11T14:00:26.435Z,5892
2017-07-11T14:01:27.283Z,5584
2017-07-11T14:02:27.932Z,5384
2017-07-11T14:04:12.087Z,5180
2017-07-11T14:05:12.731Z,5052
2017-07-11T14:06:13.378Z,5008
2017-07-11T14:07:14.029Z,4932
2017-07-11T14:08:58.178Z,4848
2017-07-11T14:09:59.026Z,4836
2017-07-11T14:10:59.672Z,4788
2017-07-11T14:12:00.321Z,4784
2017-07-11T14:13:44.468Z,4780
2017-07-11T14:14:45.115Z,4860
2017-07-11T14:15:45.813Z,4884
2017-07-11T14:16:46.463Z,4628
2017-07-11T14:18:30.763Z,5144
2017-07-11T14:19:31.410Z,4648
2017-07-11T14:20:32.055Z,5476
2017-07-11T14:21:32.706Z,5368
2017-07-11T14:23:16.851Z,5876
2017-07-11T14:24:17.500Z,4548
2017-07-11T14:25:18.147Z,4540
2017-07-11T14:26:18.997Z,4512
2017-07-11T14:28:03.142Z,4504
2017-07-11T14:29:03.789Z,4476
2017-07-11T14:30:04.437Z,4464
2017-07-11T14:31:05.087Z,4484
2017-07-11T14:32:49.232Z,4492
2017-07-11T14:33:49.879Z,4408
2017-07-11T14:34:50.726Z,4344
2017-07-11T14:35:51.376Z,4492
2017-07-11T14:37:35.519Z,4324
2017-07-11T14:38:36.169Z,4324
2017-07-11T14:39:36.823Z,4316
2017-07-11T14:40:37.462Z,4292
2017-07-11T14:42:21.908Z,4244
2017-07-11T14:43:22.554Z,4232
2017-07-11T14:44:23.200Z,4192
2017-07-11T14:45:23.850Z,4224
2017-07-11T14:47:07.995Z,4216
2017-07-11T14:48:08.641Z,4172
2017-07-11T14:49:09.288Z,4128
2017-07-11T14:50:09.937Z,4092
2017-07-11T14:51:54.333Z,4088
2017-07-11T14:52:54.979Z,4076
2017-07-11T14:53:55.625Z,4048
2017-07-11T14:54:56.273Z,3948
2017-07-11T14:56:40.419Z,3908
2017-07-11T14:57:41.064Z,3868
2017-07-11T14:58:41.711Z,4052
2017-07-11T14:59:42.610Z,3812
2017-07-11T15:01:26.756Z,3748
2017-07-11T15:02:27.401Z,3728
2017-07-11T15:03:28.047Z,3876
2017-07-11T15:04:28.696Z,3712
2017-07-11T15:06:12.840Z,3716
2017-07-11T15:07:13.686Z,3728
2017-07-11T15:08:14.330Z,3924
2017-07-11T15:09:14.977Z,3808
2017-07-11T15:10:59.125Z,3640
2017-07-11T15:11:59.769Z,3632
2017-07-11T15:13:00.414Z,3640
2017-07-11T15:14:01.063Z,3676
2017-07-11T15:15:45.358Z,3544
2017-07-11T15:16:46.001Z,3508
2017-07-11T15:17:46.645Z,3580
2017-07-11T15:18:47.292Z,3484
2017-07-11T15:20:31.445Z,3440
2017-07-11T15:21:32.088Z,3472
2017-07-11T15:22:32.733Z,3456
2017-07-11T15:23:33.383Z,3424
2017-07-11T15:25:17.725Z,3340
2017-07-11T15:26:18.375Z,3396
2017-07-11T15:27:19.014Z,3324
2017-07-11T15:28:19.659Z,3288
2017-07-11T15:30:03.802Z,3240
2017-07-11T15:31:04.446Z,3216
2017-07-11T15:32:05.090Z,3200
2017-07-11T15:33:06.036Z,3120
2017-07-11T15:34:50.182Z,3120
2017-07-11T15:35:50.825Z,3084
2017-07-11T15:36:51.468Z,3032
2017-07-11T15:37:52.114Z,3012
2017-07-11T15:39:36.257Z,2992
2017-07-11T15:40:37.051Z,2968
2017-07-11T15:41:37.694Z,2964
2017-07-11T15:42:38.339Z,2924
2017-07-11T15:44:22.484Z,2928
2017-07-11T15:45:23.127Z,2896
2017-07-11T15:46:23.772Z,2884
2017-07-11T15:47:24.417Z,2888
2017-07-11T15:49:08.760Z,2820
2017-07-11T15:50:09.403Z,2816
2017-07-11T15:51:10.044Z,2780
2017-07-11T15:52:10.691Z,2784
2017-07-11T15:53:54.834Z,2720
2017-07-11T15:54:55.476Z,2716
2017-07-11T15:55:56.120Z,2688
2017-07-11T15:56:56.766Z,2668
2017-07-11T15:58:41.109Z,2668
2017-07-11T15:59:41.703Z,2664
2017-07-11T16:00:42.343Z,2584
2017-07-11T16:01:42.988Z,2608
2017-07-11T16:03:27.132Z,2520
2017-07-11T16:04:27.775Z,2492
2017-07-11T16:05:28.719Z,2412
2017-07-11T16:06:29.366Z,2360
2017-07-11T16:08:13.509Z,2324
2017-07-11T16:09:14.152Z,2368
2017-07-11T16:10:14.796Z,2376
2017-07-11T16:11:15.441Z,2312
2017-07-11T16:12:59.583Z,2320
2017-07-11T16:14:00.376Z,2316
2017-07-11T16:15:01.019Z,2316
2017-07-11T16:16:01.666Z,2296
2017-07-11T16:17:45.808Z,2264
2017-07-11T16:18:46.451Z,2252
2017-07-11T16:19:47.094Z,2228
2017-07-11T16:20:47.742Z,2180
2017-07-11T16:22:32.131Z,2168
2017-07-11T16:23:32.779Z,2116
2017-07-11T16:24:33.420Z,2088
2017-07-11T16:25:34.066Z,2084
2017-07-11T16:27:18.206Z,2012
2017-07-11T16:28:18.849Z,2000
2017-07-11T16:29:19.492Z,1980
2017-07-11T16:30:20.137Z,1976
2017-07-11T16:32:04.430Z,1928
2017-07-11T16:33:05.073Z,1924
2017-07-11T16:34:05.717Z,1924
2017-07-11T16:35:06.363Z,1924
2017-07-11T16:36:50.505Z,1892
2017-07-11T16:37:51.148Z,1888
2017-07-11T16:38:51.993Z,1880
2017-07-11T16:39:52.646Z,1852
2017-07-11T16:41:36.782Z,1832
2017-07-11T16:42:37.425Z,1844
2017-07-11T16:43:38.068Z,1808
2017-07-11T16:44:38.713Z,1832
2017-07-11T16:46:22.856Z,1812
2017-07-11T16:47:23.899Z,1808
2017-07-11T16:48:24.541Z,1780
2017-07-11T16:49:25.187Z,1796
2017-07-11T16:51:09.331Z,1808
2017-07-11T16:52:09.974Z,1788
2017-07-11T16:53:10.618Z,1768